Time;durP1;ratioP1;P1;durP2;ratioP2;P2;SDS_P1;SDS_P2;PMS_P1;PMS_P2;Temp;Humidity;BMP_temperature;BMP_pressure;BME280_temperature;BME280_humidity;BME280_pressure;Samples;Min_cycle;Max_cycle;Signal;HPM_P1;HPM_P2
2023/03/14 00:01:15;;;;;;;32.53;6.13;;;8.80;99.90;;;;;;4991350;28;20046;-75
2023/03/14 00:03:40;;;;;;;32.47;5.38;;;9.00;99.90;;;;;;4991861;28;20057;-75
2023/03/14 00:06:07;;;;;;;32.90;4.43;;;8.90;99.90;;;;;;4991616;28;20908;-76
2023/03/14 00:08:33;;;;;;;25.92;4.20;;;9.00;99.90;;;;;;4991714;28;20042;-77
2023/03/14 00:11:04;;;;;;;23.83;4.43;;;9.10;99.90;;;;;;4957943;28;20058;-74
2023/03/14 00:13:30;;;;;;;30.98;5.60;;;9.90;99.90;;;;;;4991649;28;20057;-76
2023/03/14 00:16:09;;;;;;;31.35;4.63;;;9.30;99.90;;;;;;4974145;28;20050;-77
2023/03/14 00:18:35;;;;;;;23.92;4.15;;;9.30;99.90;;;;;;4991084;28;20050;-75
2023/03/14 00:21:02;;;;;;;41.33;6.47;;;10.00;99.90;;;;;;4991696;28;20054;-75
2023/03/14 00:23:29;;;;;;;29.10;4.30;;;9.40;99.90;;;;;;4974043;28;20405;-76
2023/03/14 00:25:59;;;;;;;27.10;4.43;;;10.10;99.90;;;;;;4991725;28;20918;-75
2023/03/14 00:28:25;;;;;;;22.15;4.47;;;10.10;99.90;;;;;;4991771;28;20057;-75
2023/03/14 00:30:50;;;;;;;22.65;4.60;;;9.40;99.90;;;;;;4974229;28;20409;-76
2023/03/14 00:33:16;;;;;;;26.48;4.63;;;9.50;99.90;;;;;;4991425;28;20125;-75
2023/03/14 00:35:42;;;;;;;26.80;4.40;;;9.50;99.90;;;;;;4991125;28;20046;-76
2023/03/14 00:38:07;;;;;;;25.70;4.10;;;9.50;99.90;;;;;;4973855;28;20061;-76
2023/03/14 00:40:33;;;;;;;20.85;3.75;;;9.50;99.90;;;;;;4991270;28;20050;-76
2023/03/14 00:42:58;;;;;;;28.35;4.53;;;9.50;99.90;;;;;;4991545;28;20049;-75
2023/03/14 00:45:24;;;;;;;28.73;4.35;;;10.10;99.90;;;;;;4991103;28;20056;-75
2023/03/14 00:47:50;;;;;;;22.25;3.60;;;9.50;99.90;;;;;;4991341;28;20493;-75
2023/03/14 00:50:15;;;;;;;22.27;4.82;;;9.50;99.90;;;;;;4990890;28;20041;-75
2023/03/14 00:52:41;;;;;;;24.27;4.72;;;9.50;99.90;;;;;;4973673;28;20050;-76
2023/03/14 00:55:07;;;;;;;21.67;3.65;;;9.50;99.90;;;;;;4990952;28;20050;-75
2023/03/14 00:57:32;;;;;;;20.90;3.75;;;9.50;99.90;;;;;;4973668;28;20046;-75
2023/03/14 00:59:58;;;;;;;19.02;3.67;;;9.50;99.90;;;;;;4973696;28;20054;-76
2023/03/14 01:02:24;;;;;;;20.73;3.35;;;9.70;99.90;;;;;;4991298;28;20394;-76
2023/03/14 01:04:49;;;;;;;28.20;4.82;;;10.10;99.90;;;;;;4990657;28;20046;-77
2023/03/14 01:07:16;;;;;;;19.33;4.30;;;9.60;99.90;;;;;;4990519;28;20046;-76
2023/03/14 01:09:41;;;;;;;19.67;3.63;;;9.60;99.90;;;;;;4990940;28;20043;-76
2023/03/14 01:12:07;;;;;;;16.85;2.75;;;9.60;99.90;;;;;;4990773;28;20410;-75
2023/03/14 01:14:33;;;;;;;23.75;3.55;;;9.60;99.90;;;;;;4991005;28;20089;-75
2023/03/14 01:17:00;;;;;;;26.15;4.20;;;9.70;99.90;;;;;;4990301;28;20097;-76
2023/03/14 01:19:28;;;;;;;21.15;3.72;;;10.30;99.90;;;;;;4990403;28;20054;-75
2023/03/14 01:21:54;;;;;;;27.90;4.68;;;9.70;99.90;;;;;;4990609;28;20050;-75
2023/03/14 01:24:20;;;;;;;21.88;3.75;;;10.30;99.90;;;;;;4991089;28;20129;-76
2023/03/14 01:26:45;;;;;;;27.48;4.63;;;10.00;99.90;;;;;;4990333;28;20068;-76
2023/03/14 01:29:11;;;;;;;21.70;4.10;;;9.80;99.90;;;;;;4990550;28;20839;-75
2023/03/14 01:31:37;;;;;;;21.15;3.67;;;9.80;99.90;;;;;;4990714;28;20048;-76
2023/03/14 01:34:02;;;;;;;15.68;2.90;;;10.00;99.90;;;;;;4990456;28;20092;-75
2023/03/14 01:36:28;;;;;;;18.02;4.38;;;10.00;99.90;;;;;;4968566;28;20386;-75
2023/03/14 01:38:54;;;;;;;17.65;3.50;;;10.30;99.90;;;;;;4972556;28;20061;-76
2023/03/14 01:41:22;;;;;;;17.02;3.10;;;10.30;99.90;;;;;;4972618;28;20371;-76
2023/03/14 01:43:49;;;;;;;19.20;3.80;;;10.10;99.90;;;;;;4990259;28;20502;-75
2023/03/14 01:46:20;;;;;;;13.40;2.65;;;10.00;99.90;;;;;;5005756;28;20629;-77
2023/03/14 01:49:01;;;;;;;20.17;3.20;;;10.00;99.90;;;;;;4990341;28;20046;-76
2023/03/14 01:51:42;;;;;;;17.58;2.85;;;10.00;99.90;;;;;;4990059;28;20051;-76
2023/03/14 01:54:23;;;;;;;18.58;2.90;;;10.00;99.90;;;;;;4990305;28;20054;-77
2023/03/14 01:57:02;;;;;;;21.92;3.17;;;10.00;99.90;;;;;;4990249;28;20053;-77
2023/03/14 01:59:31;;;;;;;14.48;2.45;;;10.10;99.90;;;;;;4990008;28;20093;-76
2023/03/14 02:01:57;;;;;;;10.10;2.22;;;10.40;99.90;;;;;;4972623;28;20137;-76
2023/03/14 02:04:23;;;;;;;15.90;2.85;;;10.30;99.90;;;;;;4990302;28;20050;-77
2023/03/14 02:06:58;;;;;;;16.58;2.92;;;9.90;99.90;;;;;;4989974;28;20035;-77
2023/03/14 02:09:24;;;;;;;11.05;2.10;;;9.90;99.90;;;;;;4990215;28;20046;-75
2023/03/14 02:11:51;;;;;;;16.90;2.53;;;9.90;99.90;;;;;;4990273;28;20065;-76
2023/03/14 02:14:28;;;;;;;21.08;2.63;;;10.30;99.90;;;;;;4990324;28;20050;-75
2023/03/14 02:16:54;;;;;;;20.67;2.85;;;9.90;99.90;;;;;;4990352;28;20054;-75
2023/03/14 02:19:32;;;;;;;22.92;3.00;;;9.80;99.90;;;;;;4989789;28;20046;-75
2023/03/14 02:22:12;;;;;;;17.10;3.00;;;9.80;99.90;;;;;;4990094;28;20057;-75
2023/03/14 02:24:59;;;;;;;16.88;2.58;;;9.80;99.90;;;;;;4993409;28;20035;-76
2023/03/14 02:27:26;;;;;;;15.40;2.40;;;9.70;99.90;;;;;;4993904;28;20054;-76
2023/03/14 02:30:00;;;;;;;9.98;2.00;;;9.70;99.90;;;;;;4993269;28;20045;-76
2023/03/14 02:32:27;;;;;;;9.07;1.80;;;10.40;99.90;;;;;;4993585;28;20117;-75
2023/03/14 02:34:57;;;;;;;14.70;2.35;;;9.70;99.90;;;;;;4976307;28;20097;-76
2023/03/14 02:37:30;;;;;;;16.70;2.50;;;9.80;99.90;;;;;;4991159;28;20409;-74
2023/03/14 02:39:55;;;;;;;13.18;1.73;;;10.00;99.90;;;;;;4993325;28;20149;-74
2023/03/14 02:42:21;;;;;;;10.10;2.15;;;9.70;99.90;;;;;;4993727;28;20133;-75
2023/03/14 02:44:51;;;;;;;10.57;2.55;;;10.20;99.90;;;;;;4976539;28;20049;-75
2023/03/14 02:47:16;;;;;;;16.45;2.53;;;9.70;99.90;;;;;;4993499;28;20120;-76
2023/03/14 02:49:42;;;;;;;16.02;2.60;;;10.00;99.90;;;;;;5008582;28;20047;-76
2023/03/14 02:52:08;;;;;;;15.63;2.20;;;10.10;99.90;;;;;;5006730;28;20054;-76
2023/03/14 02:54:33;;;;;;;12.80;2.45;;;9.80;99.90;;;;;;4975848;28;20132;-75
2023/03/14 02:56:59;;;;;;;13.43;2.80;;;10.30;99.90;;;;;;4975753;28;20405;-76
2023/03/14 02:59:24;;;;;;;15.77;2.25;;;9.50;99.90;;;;;;4993177;28;20092;-77
2023/03/14 03:01:50;;;;;;;12.98;2.20;;;9.40;99.90;;;;;;4992341;28;20486;-77
2023/03/14 03:04:16;;;;;;;13.95;2.67;;;9.40;99.90;;;;;;4975279;28;20062;-76
2023/03/14 03:06:42;;;;;;;13.88;2.45;;;9.70;99.90;;;;;;4993040;28;20046;-74
2023/03/14 03:09:07;;;;;;;14.55;2.55;;;9.30;99.90;;;;;;4992905;28;20088;-75
2023/03/14 03:11:33;;;;;;;18.17;3.22;;;9.20;99.90;;;;;;4992282;28;20054;-75
2023/03/14 03:13:59;;;;;;;19.45;3.67;;;9.20;99.90;;;;;;4992359;28;20052;-79
2023/03/14 03:16:24;;;;;;;11.98;2.70;;;9.80;99.90;;;;;;4992990;28;20125;-76
2023/03/14 03:18:50;;;;;;;15.52;3.00;;;9.10;99.90;;;;;;4992961;28;20073;-76
2023/03/14 03:21:16;;;;;;;17.15;3.35;;;9.30;99.90;;;;;;4992446;28;20493;-77
2023/03/14 03:23:41;;;;;;;16.90;3.63;;;9.00;99.90;;;;;;4992446;28;20053;-76
2023/03/14 03:26:10;;;;;;;17.25;3.00;;;9.00;99.90;;;;;;4975001;28;20046;-79
2023/03/14 03:28:36;;;;;;;10.20;2.80;;;9.00;99.90;;;;;;4992353;28;20042;-80
2023/03/14 03:31:11;;;;;;;14.45;3.03;;;9.00;99.90;;;;;;4975724;28;20053;-76
2023/03/14 03:33:38;;;;;;;16.13;2.67;;;9.30;99.90;;;;;;4993045;28;20089;-76
2023/03/14 03:36:04;;;;;;;18.92;3.47;;;9.20;99.90;;;;;;4991798;28;20457;-79
2023/03/14 03:38:29;;;;;;;17.25;3.33;;;8.90;99.90;;;;;;4992324;28;20062;-81
2023/03/14 03:40:55;;;;;;;13.35;3.03;;;8.90;99.90;;;;;;4992470;28;20042;-76
2023/03/14 03:43:20;;;;;;;15.15;3.30;;;8.40;99.90;;;;;;4991910;28;20492;-76
2023/03/14 03:45:46;;;;;;;14.10;3.20;;;9.50;99.90;;;;;;4992652;28;20046;-79
2023/03/14 03:48:12;;;;;;;16.05;3.13;;;9.00;99.90;;;;;;4998354;28;20050;-76
2023/03/14 03:50:44;;;;;;;24.67;3.97;;;8.90;99.90;;;;;;4988457;28;20391;-76
2023/03/14 03:53:09;;;;;;;20.50;3.95;;;9.40;99.90;;;;;;4991896;28;20042;-74
2023/03/14 03:55:35;;;;;;;18.45;3.83;;;8.90;99.90;;;;;;4974250;28;20057;-77
2023/03/14 03:58:01;;;;;;;19.17;3.70;;;8.90;99.90;;;;;;4992142;28;20042;-76
2023/03/14 04:00:26;;;;;;;19.33;3.50;;;8.80;99.90;;;;;;4992184;28;20497;-77
2023/03/14 04:02:52;;;;;;;20.33;3.38;;;9.00;99.90;;;;;;4991863;28;20046;-75
2023/03/14 04:05:18;;;;;;;18.98;3.65;;;8.90;99.90;;;;;;4991779;28;20038;-79
2023/03/14 04:07:43;;;;;;;18.48;4.07;;;8.80;99.90;;;;;;4991867;28;20074;-76
2023/03/14 04:10:09;;;;;;;34.97;4.55;;;8.80;99.90;;;;;;4991682;28;20038;-77
2023/03/14 04:12:35;;;;;;;24.92;4.63;;;8.90;99.90;;;;;;4991623;28;20057;-75
2023/03/14 04:15:01;;;;;;;23.63;3.92;;;8.80;99.90;;;;;;4991147;28;20046;-77
2023/03/14 04:17:26;;;;;;;20.23;3.90;;;8.80;99.90;;;;;;4974181;28;20054;-75
2023/03/14 04:19:53;;;;;;;27.92;4.22;;;8.80;99.90;;;;;;4991714;28;20042;-75
2023/03/14 04:22:19;;;;;;;19.85;4.90;;;8.90;99.90;;;;;;4991667;28;20058;-77
2023/03/14 04:24:45;;;;;;;26.63;4.95;;;9.40;99.90;;;;;;4973861;28;20121;-76
2023/03/14 04:27:10;;;;;;;26.73;5.03;;;9.60;99.90;;;;;;4991171;28;20139;-79
2023/03/14 04:29:36;;;;;;;27.60;5.00;;;8.80;99.90;;;;;;4991498;28;20409;-77
2023/03/14 04:32:02;;;;;;;18.52;4.97;;;8.80;99.90;;;;;;4991422;28;20050;-77
2023/03/14 04:34:27;;;;;;;23.25;5.53;;;8.80;99.90;;;;;;4991656;28;20049;-77
2023/03/14 04:36:53;;;;;;;21.73;6.10;;;8.80;99.90;;;;;;4995937;28;20058;-76
2023/03/14 04:39:18;;;;;;;27.15;5.68;;;8.80;99.90;;;;;;4954425;28;20490;-77
2023/03/14 04:41:44;;;;;;;18.83;6.82;;;8.70;99.90;;;;;;4971850;28;20101;-76
2023/03/14 04:44:10;;;;;;;17.90;5.95;;;8.70;99.90;;;;;;4982088;28;20130;-77
2023/03/14 04:46:36;;;;;;;22.17;5.43;;;8.70;99.90;;;;;;4990444;28;20121;-77
2023/03/14 04:49:01;;;;;;;18.02;6.10;;;8.80;99.90;;;;;;4973967;28;20549;-77
2023/03/14 04:51:27;;;;;;;22.05;6.40;;;8.70;99.90;;;;;;4991075;28;20054;-77
2023/03/14 04:53:54;;;;;;;22.48;6.70;;;8.70;99.90;;;;;;4991005;28;20490;-79
2023/03/14 04:56:20;;;;;;;18.80;6.55;;;8.70;99.90;;;;;;4991114;28;20093;-80
2023/03/14 04:58:45;;;;;;;20.58;6.40;;;9.40;99.90;;;;;;4990800;28;20077;-79
2023/03/14 05:01:11;;;;;;;20.05;6.90;;;8.70;99.90;;;;;;4973474;28;20050;-81
2023/03/14 05:03:37;;;;;;;15.65;5.95;;;8.70;99.90;;;;;;4973548;28;20046;-80
2023/03/14 05:06:04;;;;;;;24.00;6.38;;;8.70;99.90;;;;;;4990557;28;20497;-78
2023/03/14 05:08:30;;;;;;;20.67;5.53;;;8.70;99.90;;;;;;4990504;28;20043;-81
2023/03/14 05:10:57;;;;;;;18.67;5.88;;;8.60;99.90;;;;;;4990748;28;20050;-79
2023/03/14 05:13:22;;;;;;;16.05;5.40;;;8.60;99.90;;;;;;4990215;28;20128;-80
2023/03/14 05:15:48;;;;;;;12.57;4.95;;;8.60;99.90;;;;;;4990573;28;20069;-80
2023/03/14 05:18:14;;;;;;;10.15;4.97;;;9.60;99.90;;;;;;4989973;28;20100;-80
2023/03/14 05:20:40;;;;;;;14.50;5.53;;;8.60;99.90;;;;;;4990661;28;20042;-80
2023/03/14 05:23:05;;;;;;;12.07;4.45;;;8.60;99.90;;;;;;4990802;28;20046;-80
2023/03/14 05:25:31;;;;;;;17.92;5.35;;;8.60;99.90;;;;;;4972904;28;20049;-80
2023/03/14 05:27:56;;;;;;;14.15;5.80;;;8.60;99.90;;;;;;4990860;28;20490;-80
2023/03/14 05:30:22;;;;;;;14.70;4.80;;;8.60;99.90;;;;;;4990318;28;20077;-80
2023/03/14 05:32:48;;;;;;;18.73;5.95;;;8.60;99.90;;;;;;4990259;28;20038;-79
2023/03/14 05:35:14;;;;;;;18.55;5.85;;;8.60;99.90;;;;;;4990361;28;20048;-78
2023/03/14 05:37:40;;;;;;;13.15;5.78;;;8.60;99.90;;;;;;4990362;28;20052;-82
2023/03/14 05:40:06;;;;;;;19.80;5.65;;;8.50;99.90;;;;;;4973066;28;20062;-81
2023/03/14 05:42:33;;;;;;;16.75;5.15;;;8.50;99.90;;;;;;4990426;28;20058;-82
2023/03/14 05:44:58;;;;;;;20.10;4.57;;;8.90;99.90;;;;;;4989854;28;20039;-81
2023/03/14 05:47:24;;;;;;;13.35;4.32;;;8.60;99.90;;;;;;4989948;28;20490;-80
2023/03/14 05:49:50;;;;;;;11.20;3.85;;;9.20;99.90;;;;;;4990754;28;20125;-79
2023/03/14 05:52:16;;;;;;;14.50;4.85;;;8.50;99.90;;;;;;4972985;28;20154;-78
2023/03/14 05:54:41;;;;;;;10.15;2.60;;;9.40;99.90;;;;;;4990218;28;20054;-78
2023/03/14 05:57:07;;;;;;;10.35;3.78;;;8.70;99.90;;;;;;4989936;28;20530;-79
2023/03/14 05:59:32;;;;;;;12.82;4.00;;;8.70;99.90;;;;;;4993043;28;20046;-78
2023/03/14 06:01:58;;;;;;;11.05;3.55;;;9.10;99.90;;;;;;4994030;28;20042;-81
2023/03/14 06:04:24;;;;;;;9.70;3.22;;;8.60;99.90;;;;;;4994430;28;20081;-80
2023/03/14 06:06:50;;;;;;;12.57;3.95;;;8.60;99.90;;;;;;4994119;28;20034;-81
2023/03/14 06:09:16;;;;;;;5.85;3.30;;;8.60;99.90;;;;;;4993779;28;20126;-79
2023/03/14 06:11:41;;;;;;;9.93;3.67;;;9.40;99.90;;;;;;4993962;28;20121;-79
2023/03/14 06:14:07;;;;;;;12.35;3.88;;;8.60;99.90;;;;;;4994016;28;20113;-80
2023/03/14 06:16:33;;;;;;;7.63;3.63;;;8.90;99.90;;;;;;4994095;28;20134;-78
2023/03/14 06:18:58;;;;;;;13.75;3.70;;;8.60;99.90;;;;;;4993298;28;20433;-81
2023/03/14 06:21:24;;;;;;;11.88;4.00;;;8.60;99.90;;;;;;4993614;28;20046;-81
2023/03/14 06:23:50;;;;;;;9.68;3.40;;;8.60;99.90;;;;;;4993997;28;20099;-81
2023/03/14 06:26:16;;;;;;;10.82;3.78;;;9.40;99.90;;;;;;4960153;28;20074;-80
2023/03/14 06:28:41;;;;;;;12.73;4.05;;;8.60;99.90;;;;;;4993504;28;20449;-79
2023/03/14 06:31:07;;;;;;;7.20;0.98;;;8.60;99.90;;;;;;4993310;28;20398;-78
2023/03/14 06:33:32;;;;;;;8.10;0.93;;;8.00;99.90;;;;;;4976044;28;20047;-80
2023/03/14 06:35:59;;;;;;;10.63;1.23;;;8.30;99.90;;;;;;4993740;28;20058;-79
2023/03/14 06:38:25;;;;;;;9.10;1.83;;;7.60;99.90;;;;;;4993166;28;20050;-78
2023/03/14 06:40:50;;;;;;;19.08;1.65;;;7.40;99.90;;;;;;4993131;28;20101;-78
2023/03/14 06:43:16;;;;;;;12.98;1.30;;;7.30;99.90;;;;;;4993394;28;20042;-79
2023/03/14 06:45:42;;;;;;;12.88;1.83;;;7.20;99.90;;;;;;4975818;28;20383;-78
2023/03/14 06:48:07;;;;;;;15.00;1.88;;;7.10;99.90;;;;;;4993263;28;20141;-80
2023/03/14 06:50:33;;;;;;;11.55;1.65;;;7.00;99.90;;;;;;4993587;28;20046;-80
2023/03/14 06:52:59;;;;;;;9.35;0.85;;;6.90;99.90;;;;;;4993252;28;20464;-79
2023/03/14 06:55:25;;;;;;;10.40;1.25;;;6.70;99.90;;;;;;4975996;28;20389;-76
2023/03/14 06:57:51;;;;;;;13.13;1.60;;;7.20;99.90;;;;;;4975242;28;20050;-81
2023/03/14 07:00:17;;;;;;;14.35;1.40;;;6.50;99.90;;;;;;4975812;28;20128;-80
2023/03/14 07:02:43;;;;;;;9.70;1.23;;;6.40;99.90;;;;;;4992855;28;20100;-79
2023/03/14 07:05:10;;;;;;;17.63;1.30;;;6.20;99.90;;;;;;4992911;28;20058;-76
2023/03/14 07:07:36;;;;;;;7.05;0.98;;;6.00;99.90;;;;;;4993052;28;20039;-81
2023/03/14 07:10:01;;;;;;;7.05;1.17;;;5.90;99.90;;;;;;4992679;28;20043;-81
2023/03/14 07:12:27;;;;;;;10.63;1.33;;;5.70;99.90;;;;;;4992408;28;20691;-77
2023/03/14 07:14:52;;;;;;;11.60;0.95;;;5.60;99.90;;;;;;4967362;28;20046;-77
2023/03/14 07:17:18;;;;;;;4.43;0.82;;;5.40;99.90;;;;;;4975405;28;20050;-77
2023/03/14 07:19:43;;;;;;;5.35;0.60;;;5.30;99.90;;;;;;4992437;28;20046;-78
2023/03/14 07:22:09;;;;;;;5.03;0.70;;;5.00;99.90;;;;;;4992924;28;20397;-76
2023/03/14 07:24:35;;;;;;;4.75;0.43;;;5.00;99.90;;;;;;4992189;28;20053;-77
2023/03/14 07:27:00;;;;;;;5.05;0.60;;;4.90;99.90;;;;;;4992389;28;20125;-75
2023/03/14 07:29:26;;;;;;;5.07;1.20;;;4.90;99.90;;;;;;4992224;28;20081;-77
2023/03/14 07:31:52;;;;;;;5.70;0.70;;;4.80;99.90;;;;;;4992531;28;20051;-81
2023/03/14 07:34:19;;;;;;;5.50;0.63;;;4.70;99.90;;;;;;4974414;28;20038;-74
2023/03/14 07:36:44;;;;;;;6.95;0.55;;;4.70;99.90;;;;;;4955285;28;20062;-79
2023/03/14 07:39:10;;;;;;;7.68;0.65;;;4.60;99.90;;;;;;4972945;28;20054;-77
2023/03/14 07:41:36;;;;;;;6.97;0.57;;;4.60;99.90;;;;;;4973124;28;20054;-77
2023/03/14 07:44:01;;;;;;;2.05;0.40;;;4.60;99.90;;;;;;4989003;28;20046;-79
2023/03/14 07:46:27;;;;;;;4.28;0.57;;;4.60;99.90;;;;;;4992223;28;20039;-76
2023/03/14 07:48:52;;;;;;;11.32;0.90;;;4.50;99.90;;;;;;4992196;28;20042;-78
2023/03/14 07:51:18;;;;;;;8.85;0.77;;;4.50;99.90;;;;;;4991975;28;20038;-76
2023/03/14 07:53:44;;;;;;;8.18;1.35;;;4.50;99.90;;;;;;4991861;28;20057;-77
2023/03/14 07:56:09;;;;;;;6.22;1.05;;;4.50;99.90;;;;;;4974683;28;20193;-76
2023/03/14 07:58:35;;;;;;;7.45;1.10;;;4.50;99.90;;;;;;4991903;28;20088;-76
2023/03/14 08:01:01;;;;;;;9.27;1.13;;;4.60;99.90;;;;;;4991884;28;20052;-75
2023/03/14 08:03:26;;;;;;;4.82;0.73;;;4.50;99.90;;;;;;4992267;28;20464;-81
2023/03/14 08:05:53;;;;;;;11.27;0.95;;;4.60;99.90;;;;;;4991675;28;20502;-78
2023/03/14 08:08:18;;;;;;;9.75;0.70;;;4.60;99.90;;;;;;4992094;28;20141;-79
2023/03/14 08:10:46;;;;;;;13.32;1.17;;;4.70;99.90;;;;;;4991847;28;20117;-82
2023/03/14 08:13:12;;;;;;;9.57;0.88;;;4.60;99.90;;;;;;4991733;28;20054;-75
2023/03/14 08:15:37;;;;;;;5.25;1.00;;;4.70;99.90;;;;;;4991475;28;20131;-76
2023/03/14 08:18:04;;;;;;;10.57;0.95;;;4.70;99.90;;;;;;4991181;28;20121;-76
2023/03/14 08:20:30;;;;;;;10.45;1.02;;;4.80;99.90;;;;;;4991077;28;20042;-75
2023/03/14 08:23:00;;;;;;;10.05;0.88;;;4.80;99.90;;;;;;4991390;28;20048;-76
2023/03/14 08:25:27;;;;;;;7.13;0.98;;;4.90;99.90;;;;;;5017071;28;20053;-76
2023/03/14 08:27:53;;;;;;;7.07;0.90;;;4.90;99.90;;;;;;4991241;28;20038;-75
2023/03/14 08:30:20;;;;;;;11.43;1.10;;;5.00;99.90;;;;;;4973814;28;20050;-75
2023/03/14 08:32:46;;;;;;;12.25;1.00;;;5.00;99.90;;;;;;4991226;28;20042;-76
2023/03/14 08:35:13;;;;;;;16.60;1.55;;;5.10;99.90;;;;;;4991121;28;20412;-76
2023/03/14 08:37:39;;;;;;;7.38;0.75;;;5.10;99.90;;;;;;4980150;28;20058;-74
2023/03/14 08:40:06;;;;;;;3.83;0.75;;;5.20;99.90;;;;;;4983009;28;20101;-74
2023/03/14 08:42:33;;;;;;;8.05;1.00;;;5.30;99.90;;;;;;5005892;28;20058;-77
2023/03/14 08:44:59;;;;;;;5.95;1.00;;;6.00;99.90;;;;;;4973723;28;20137;-73
2023/03/14 08:47:25;;;;;;;11.77;1.17;;;5.50;99.90;;;;;;4990844;28;20129;-76
2023/03/14 08:49:50;;;;;;;6.32;1.10;;;5.60;99.90;;;;;;4973816;28;20129;-76
2023/03/14 08:52:16;;;;;;;12.50;1.25;;;5.60;99.90;;;;;;4991395;28;20458;-76
2023/03/14 08:54:45;;;;;;;12.02;1.30;;;5.70;99.90;;;;;;4991227;28;20387;-77
2023/03/14 08:57:11;;;;;;;14.27;2.15;;;5.70;99.90;;;;;;4991220;28;20050;-75
2023/03/14 08:59:36;;;;;;;14.98;1.60;;;5.70;99.90;;;;;;4991054;28;20050;-74
2023/03/14 09:02:03;;;;;;;19.50;1.95;;;5.70;99.90;;;;;;4991856;28;20038;-76
2023/03/14 09:04:29;;;;;;;16.75;1.70;;;5.90;99.90;;;;;;4991632;28;20078;-75
2023/03/14 09:06:57;;;;;;;16.05;1.65;;;5.90;99.90;;;;;;4991639;28;20042;-75
2023/03/14 09:09:24;;;;;;;14.38;2.10;;;6.00;99.90;;;;;;4991534;28;20054;-74
2023/03/14 09:11:49;;;;;;;15.05;2.08;;;6.80;99.90;;;;;;4991528;28;20096;-77
2023/03/14 09:14:15;;;;;;;19.98;2.33;;;6.20;99.90;;;;;;4990776;28;20449;-74
2023/03/14 09:16:41;;;;;;;17.15;2.55;;;6.30;99.90;;;;;;5006669;28;20042;-75
2023/03/14 09:19:06;;;;;;;15.90;2.08;;;6.40;99.90;;;;;;4991242;28;20079;-75
2023/03/14 09:21:32;;;;;;;22.17;2.30;;;6.50;99.90;;;;;;4991193;28;20607;-76
2023/03/14 09:23:58;;;;;;;22.38;2.70;;;7.70;99.90;;;;;;4990653;28;20120;-76
2023/03/14 09:26:23;;;;;;;25.02;3.25;;;6.70;99.90;;;;;;4991545;28;20057;-74
2023/03/14 09:28:49;;;;;;;23.17;3.20;;;6.60;99.90;;;;;;4991069;28;20465;-75
2023/03/14 09:31:15;;;;;;;28.77;3.97;;;6.70;99.90;;;;;;4991133;28;20057;-75
2023/03/14 09:33:41;;;;;;;20.75;2.22;;;6.40;99.90;;;;;;4991154;28;20054;-74
2023/03/14 09:36:07;;;;;;;16.80;3.05;;;6.30;99.90;;;;;;4990941;28;20034;-73
2023/03/14 09:38:33;;;;;;;15.23;2.78;;;6.20;99.90;;;;;;4990927;28;20046;-74
2023/03/14 09:41:01;;;;;;;19.38;3.33;;;6.20;99.90;;;;;;4990759;28;20059;-74
2023/03/14 09:43:30;;;;;;;25.48;2.85;;;6.20;99.90;;;;;;4990802;28;20046;-74
2023/03/14 09:46:00;;;;;;;22.73;3.38;;;6.20;99.90;;;;;;4990903;28;20054;-73
2023/03/14 09:48:34;;;;;;;28.27;2.92;;;6.20;99.90;;;;;;4990910;28;20706;-75
2023/03/14 09:51:06;;;;;;;25.92;3.20;;;6.20;99.90;;;;;;4990787;28;20490;-74
2023/03/14 09:53:46;;;;;;;22.70;3.10;;;6.20;99.90;;;;;;4991435;28;20059;-75
2023/03/14 09:56:25;;;;;;;19.67;2.33;;;6.20;99.90;;;;;;4990088;28;20046;-74
2023/03/14 09:58:59;;;;;;;18.70;2.95;;;6.10;99.90;;;;;;4990923;28;20485;-75
2023/03/14 10:01:31;;;;;;;18.98;2.67;;;6.10;99.90;;;;;;4990435;28;20133;-74
2023/03/14 10:04:01;;;;;;;26.23;3.35;;;6.00;99.90;;;;;;4990840;28;20054;-74
2023/03/14 10:06:29;;;;;;;24.75;2.92;;;6.00;99.90;;;;;;4991222;28;20050;-74
2023/03/14 10:08:56;;;;;;;21.42;3.28;;;6.10;99.90;;;;;;4990922;28;20077;-74
2023/03/14 10:11:23;;;;;;;24.55;3.28;;;6.10;99.90;;;;;;4990271;28;20812;-74
2023/03/14 10:14:02;;;;;;;20.50;2.78;;;6.10;99.90;;;;;;4990214;28;20042;-74
2023/03/14 10:16:33;;;;;;;24.33;2.80;;;6.10;99.90;;;;;;4990208;28;20043;-74
2023/03/14 10:19:04;;;;;;;18.33;2.88;;;6.20;99.90;;;;;;4990388;28;20119;-75
2023/03/14 10:21:35;;;;;;;21.33;2.55;;;6.30;99.90;;;;;;4973420;28;20829;-75
2023/03/14 10:24:21;;;;;;;21.45;2.67;;;6.30;99.90;;;;;;4990576;28;20080;-74
2023/03/14 10:26:53;;;;;;;27.15;3.67;;;6.40;99.90;;;;;;4989922;28;20038;-74
2023/03/14 10:29:21;;;;;;;19.80;3.58;;;6.50;99.90;;;;;;4990280;28;20046;-74
2023/03/14 10:31:48;;;;;;;15.30;2.20;;;6.40;99.90;;;;;;4989854;28;20047;-75
2023/03/14 10:34:25;;;;;;;15.23;2.38;;;6.50;99.90;;;;;;4990019;28;20046;-74
2023/03/14 10:36:59;;;;;;;17.83;2.33;;;6.50;99.90;;;;;;4989432;28;20438;-73
2023/03/14 10:39:46;;;;;;;10.85;1.80;;;6.50;99.90;;;;;;4989928;28;20054;-74
2023/03/14 10:42:18;;;;;;;13.35;2.13;;;6.50;99.90;;;;;;5003604;28;20501;-74
2023/03/14 10:44:45;;;;;;;20.20;2.10;;;6.60;99.90;;;;;;4974004;28;20084;-74
2023/03/14 10:47:21;;;;;;;17.85;2.40;;;6.90;99.90;;;;;;4993363;28;20049;-75
2023/03/14 10:49:47;;;;;;;12.98;2.08;;;7.40;99.90;;;;;;4976309;28;20547;-74
2023/03/14 10:52:14;;;;;;;15.48;1.88;;;7.10;99.90;;;;;;4993836;28;20045;-75
2023/03/14 10:54:40;;;;;;;13.57;2.42;;;6.80;99.90;;;;;;4993630;28;20054;-74
2023/03/14 10:57:07;;;;;;;9.82;1.67;;;6.70;99.90;;;;;;4993766;28;20126;-75
2023/03/14 10:59:39;;;;;;;14.50;1.83;;;6.60;99.90;;;;;;4993800;28;20497;-76
2023/03/14 11:02:48;;;;;;;9.73;1.60;;;6.50;99.90;;;;;;4993531;28;20070;-75
2023/03/14 11:05:25;;;;;;;16.73;2.25;;;6.80;99.90;;;;;;4933027;29;20099;-73
2023/03/14 11:07:56;;;;;;;8.85;1.45;;;7.10;99.90;;;;;;4921032;29;20130;-74
2023/03/14 11:10:34;;;;;;;7.65;1.23;;;7.00;99.90;;;;;;4917109;29;20582;-74
2023/03/14 11:13:08;;;;;;;14.00;1.83;;;7.00;99.90;;;;;;4934333;29;20184;-73
2023/03/14 11:15:35;;;;;;;7.63;1.63;;;7.10;99.90;;;;;;4932893;29;20060;-75
2023/03/14 11:18:25;;;;;;;13.35;2.10;;;6.90;99.90;;;;;;4932504;29;20035;-74
2023/03/14 11:21:02;;;;;;;8.07;1.70;;;6.80;99.90;;;;;;4917077;29;20063;-74
2023/03/14 11:23:40;;;;;;;14.63;1.50;;;6.70;99.90;;;;;;4916811;29;20071;-74
2023/03/14 11:26:33;;;;;;;10.27;1.20;;;6.70;99.90;;;;;;4932831;29;20043;-74
2023/03/14 11:29:24;;;;;;;9.55;1.77;;;6.70;99.90;;;;;;4932531;29;20064;-74
2023/03/14 11:31:55;;;;;;;13.65;1.60;;;6.90;99.90;;;;;;4931976;29;20403;-75
2023/03/14 11:34:30;;;;;;;12.27;1.88;;;7.00;99.90;;;;;;4932236;29;20134;-75
2023/03/14 11:37:06;;;;;;;11.40;2.03;;;7.40;99.90;;;;;;4932139;29;20048;-74
2023/03/14 11:39:47;;;;;;;8.32;1.40;;;7.70;99.90;;;;;;4916377;29;20051;-74
2023/03/14 11:42:17;;;;;;;8.70;1.55;;;7.50;99.90;;;;;;4948945;28;20050;-75
2023/03/14 11:44:49;;;;;;;13.82;1.45;;;7.30;99.90;;;;;;4972841;28;20510;-75
2023/03/14 11:47:31;;;;;;;11.13;1.55;;;7.20;99.90;;;;;;4973036;28;20391;-75
2023/03/14 11:50:21;;;;;;;7.00;1.05;;;7.40;99.90;;;;;;4972483;28;20047;-75
2023/03/14 11:52:58;;;;;;;8.43;1.63;;;7.50;99.90;;;;;;4972183;28;20058;-76
2023/03/14 11:55:36;;;;;;;9.02;1.20;;;7.50;99.90;;;;;;4979792;28;20054;-74
2023/03/14 11:58:19;;;;;;;9.15;1.20;;;7.80;99.90;;;;;;4992304;28;20057;-74
2023/03/14 12:00:47;;;;;;;11.82;1.60;;;7.90;99.90;;;;;;4992205;28;20081;-74
2023/03/14 12:03:24;;;;;;;20.23;1.90;;;8.20;99.90;;;;;;4995329;28;20121;-76
2023/03/14 12:06:01;;;;;;;17.35;1.48;;;8.30;99.90;;;;;;4972321;28;20047;-74
2023/03/14 12:08:38;;;;;;;13.82;1.20;;;7.90;99.90;;;;;;4972708;28;20133;-75
2023/03/14 12:11:20;;;;;;;9.10;1.30;;;7.90;99.90;;;;;;4972552;28;20108;-74
2023/03/14 12:13:51;;;;;;;13.68;1.50;;;7.70;99.90;;;;;;4972078;28;20658;-74
2023/03/14 12:16:22;;;;;;;8.02;1.42;;;7.60;99.90;;;;;;4972525;28;20078;-73
2023/03/14 12:18:49;;;;;;;9.75;1.70;;;7.60;99.90;;;;;;4971676;28;20148;-74
2023/03/14 12:21:15;;;;;;;11.98;1.77;;;7.80;99.90;;;;;;4972306;28;20058;-75
2023/03/14 12:23:49;;;;;;;12.15;1.35;;;8.30;99.90;;;;;;4972243;28;20043;-74
2023/03/14 12:26:21;;;;;;;5.47;0.80;;;8.10;99.90;;;;;;4972225;28;20050;-74
2023/03/14 12:28:59;;;;;;;11.43;1.70;;;8.20;99.90;;;;;;4972085;28;20149;-74
2023/03/14 12:31:31;;;;;;;8.93;1.17;;;7.90;99.90;;;;;;4972201;28;20094;-74
2023/03/14 12:34:09;;;;;;;10.40;2.35;;;7.90;99.90;;;;;;4971683;28;20051;-73
2023/03/14 12:36:49;;;;;;;8.05;1.00;;;8.40;99.90;;;;;;4972179;28;20083;-74
2023/03/14 12:39:43;;;;;;;9.02;1.65;;;8.40;99.90;;;;;;4954379;28;20066;-73
2023/03/14 12:42:35;;;;;;;12.40;1.42;;;7.70;99.90;;;;;;4988193;28;20061;-73
2023/03/14 12:45:23;;;;;;;9.30;1.33;;;7.70;99.90;;;;;;4963908;28;20520;-73
2023/03/14 12:48:16;;;;;;;7.70;1.75;;;7.80;99.90;;;;;;4971856;28;20058;-77
2023/03/14 12:51:00;;;;;;;8.27;1.30;;;7.80;99.90;;;;;;4954786;28;20418;-75
2023/03/14 12:53:27;;;;;;;11.33;1.50;;;8.40;99.90;;;;;;4971757;28;20494;-78
2023/03/14 12:56:23;;;;;;;13.35;1.75;;;8.10;99.90;;;;;;4971599;28;20069;-75